createdAt,value
2022-09-16T00:02:13.516Z,89.41
2022-09-16T00:05:16.866Z,89.01
2022-09-16T00:08:19.854Z,88.54
2022-09-16T00:11:22.737Z,88.31
2022-09-16T00:14:26.836Z,88.95
2022-09-16T00:17:30.386Z,88.00
2022-09-16T00:20:32.277Z,88.42
2022-09-16T00:23:34.460Z,88.02
2022-09-16T00:26:38.623Z,88.48
2022-09-16T00:29:40.546Z,87.60
2022-09-16T00:32:43.047Z,87.70
2022-09-16T00:35:44.887Z,88.05
2022-09-16T00:38:51.397Z,87.52
2022-09-16T00:41:53.378Z,88.52
2022-09-16T00:44:59.689Z,88.21
2022-09-16T00:48:05.147Z,88.51
2022-09-16T00:51:10.896Z,90.37
2022-09-16T00:54:14.527Z,91.90
2022-09-16T00:57:16.674Z,92.77
2022-09-16T01:00:18.635Z,92.61
2022-09-16T01:03:21.790Z,91.90
2022-09-16T01:06:24.700Z,91.62
2022-09-16T01:09:27.057Z,90.91
2022-09-16T01:12:30.072Z,91.42
2022-09-16T01:15:45.017Z,90.25
2022-09-16T01:19:10.582Z,90.01
2022-09-16T01:22:21.091Z,89.05
2022-09-16T01:25:32.167Z,89.44
2022-09-16T01:28:42.522Z,88.83
2022-09-16T01:32:03.846Z,88.30
2022-09-16T01:35:24.951Z,89.58
2022-09-16T01:38:37.130Z,89.03
2022-09-16T01:41:53.113Z,89.12
2022-09-16T01:45:07.382Z,88.57
2022-09-16T01:48:17.428Z,88.31
2022-09-16T01:51:47.343Z,88.56
2022-09-16T01:55:04.757Z,88.53
2022-09-16T01:58:36.830Z,88.33
2022-09-16T02:01:49.346Z,88.20
2022-09-16T02:04:55.346Z,89.00
2022-09-16T02:08:01.694Z,89.63
2022-09-16T02:11:06.944Z,89.04
2022-09-16T02:14:23.382Z,88.99
2022-09-16T02:17:27.523Z,89.65
2022-09-16T02:20:31.014Z,89.24
2022-09-16T02:23:40.212Z,88.67
2022-09-16T02:26:49.828Z,88.68
2022-09-16T02:29:56.149Z,87.44
2022-09-16T02:33:06.217Z,87.43
2022-09-16T02:36:08.686Z,89.33
2022-09-16T02:39:13.697Z,89.14
2022-09-16T02:42:16.223Z,88.68
2022-09-16T02:45:18.499Z,88.39
2022-09-16T02:48:27.198Z,87.74
2022-09-16T02:51:44.565Z,88.08
2022-09-16T02:54:54.759Z,87.37
2022-09-16T02:57:56.912Z,87.62
2022-09-16T03:00:59.855Z,87.90
2022-09-16T03:04:02.075Z,87.69
2022-09-16T03:07:07.241Z,88.17
2022-09-16T03:10:11.161Z,88.53
2022-09-16T03:13:22.953Z,87.31
2022-09-16T03:16:34.846Z,87.62
2022-09-16T03:19:43.891Z,87.84
2022-09-16T03:23:01.740Z,87.64
2022-09-16T03:26:21.788Z,89.41
2022-09-16T03:29:30.163Z,89.31
2022-09-16T03:32:36.333Z,90.15
2022-09-16T03:35:45.259Z,90.23
2022-09-16T03:38:47.608Z,90.09
2022-09-16T03:41:51.777Z,91.47
2022-09-16T03:44:53.772Z,92.62
2022-09-16T03:47:56.194Z,93.73
2022-09-16T03:50:58.132Z,94.53
2022-09-16T03:54:00.099Z,94.90
2022-09-16T03:57:02.842Z,96.66
2022-09-16T04:00:06.838Z,97.82
2022-09-16T04:03:13.740Z,97.08
2022-09-16T04:06:15.565Z,96.06
2022-09-16T04:09:18.603Z,96.65
2022-09-16T04:12:20.477Z,95.57
2022-09-16T04:15:22.650Z,95.16
2022-09-16T04:18:27.000Z,93.96
2022-09-16T04:21:32.352Z,93.20
2022-09-16T04:24:37.174Z,93.13
2022-09-16T04:27:39.539Z,92.74
2022-09-16T04:30:41.609Z,91.90
2022-09-16T04:33:43.760Z,91.25
2022-09-16T04:36:45.689Z,90.82
2022-09-16T04:39:47.719Z,90.00
2022-09-16T04:42:52.074Z,90.10
2022-09-16T04:45:55.225Z,90.03
2022-09-16T04:49:00.182Z,89.18
2022-09-16T04:52:03.006Z,89.71
2022-09-16T04:55:05.675Z,88.79
2022-09-16T04:58:11.107Z,87.97
2022-09-16T05:01:25.186Z,89.93
2022-09-16T05:04:27.927Z,90.01
2022-09-16T05:07:30.259Z,89.57
2022-09-16T05:10:35.508Z,89.60
2022-09-16T05:13:39.052Z,89.02
2022-09-16T05:16:44.197Z,89.59
2022-09-16T05:19:46.389Z,90.24
2022-09-16T05:22:53.193Z,90.86
2022-09-16T05:25:55.467Z,92.41
2022-09-16T05:29:02.518Z,89.56
2022-09-16T05:32:04.925Z,87.01
2022-09-16T05:35:10.223Z,85.67
2022-09-16T05:38:13.596Z,83.90
2022-09-16T05:41:15.877Z,84.32
2022-09-16T05:44:18.009Z,81.23
2022-09-16T05:47:20.269Z,81.58
2022-09-16T05:50:22.837Z,81.94
2022-09-16T05:53:25.972Z,80.35
2022-09-16T05:56:30.745Z,79.28
2022-09-16T05:59:32.603Z,79.82
2022-09-16T06:02:34.894Z,80.17
2022-09-16T06:05:36.897Z,77.88
2022-09-16T06:08:39.740Z,77.52
2022-09-16T06:11:45.569Z,77.03
2022-09-16T06:14:47.711Z,75.57
2022-09-16T06:17:50.198Z,74.46
2022-09-16T06:20:53.375Z,75.12
2022-09-16T06:23:56.943Z,76.09
2022-09-16T06:26:59.364Z,73.50
2022-09-16T06:30:01.696Z,73.95
2022-09-16T06:33:04.271Z,73.38
2022-09-16T06:36:08.479Z,72.28
2022-09-16T06:39:12.231Z,72.30
2022-09-16T06:42:14.552Z,71.02
2022-09-16T06:45:17.374Z,72.25
2022-09-16T06:48:19.718Z,71.95
2022-09-16T06:51:28.453Z,72.29
2022-09-16T06:54:30.815Z,70.23
2022-09-16T06:57:33.636Z,69.46
2022-09-16T07:00:35.538Z,69.28
2022-09-16T07:03:40.608Z,69.47
2022-09-16T07:07:08.009Z,69.10
2022-09-16T07:10:09.318Z,68.97
2022-09-16T07:13:11.779Z,69.38
2022-09-16T07:16:21.358Z,68.74
2022-09-16T07:19:24.664Z,68.01
2022-09-16T07:22:26.749Z,66.95
2022-09-16T07:25:35.471Z,68.93
2022-09-16T07:28:41.478Z,68.52
2022-09-16T07:31:43.968Z,67.65
2022-09-16T07:34:46.037Z,68.48
2022-09-16T07:37:50.353Z,67.38
2022-09-16T07:40:53.721Z,66.48
2022-09-16T07:43:59.472Z,65.80
2022-09-16T07:47:01.590Z,64.51
2022-09-16T07:50:05.219Z,65.18
2022-09-16T07:53:07.253Z,62.86
2022-09-16T07:56:15.281Z,63.74
2022-09-16T07:59:19.492Z,64.05
2022-09-16T08:02:21.615Z,61.97
2022-09-16T08:05:24.033Z,62.67
2022-09-16T08:08:26.266Z,60.36
2022-09-16T08:11:29.277Z,60.66
2022-09-16T08:14:31.365Z,59.40
2022-09-16T08:17:33.596Z,60.79
2022-09-16T08:20:37.315Z,59.94
2022-09-16T08:23:39.773Z,61.36
2022-09-16T08:26:41.877Z,60.18
2022-09-16T08:29:44.100Z,60.31
2022-09-16T08:32:46.119Z,60.13
2022-09-16T08:35:48.789Z,60.03
2022-09-16T08:38:53.656Z,59.54
2022-09-16T08:41:55.612Z,60.19
2022-09-16T08:45:00.544Z,59.54
2022-09-16T08:48:10.937Z,59.17
2022-09-16T08:51:16.595Z,57.68
2022-09-16T08:54:47.111Z,58.39
2022-09-16T08:58:15.721Z,57.32
2022-09-16T09:01:23.667Z,56.50
2022-09-16T09:04:25.827Z,58.36
2022-09-16T09:07:56.128Z,54.34
2022-09-16T09:11:13.303Z,55.23
2022-09-16T09:14:24.557Z,53.68
2022-09-16T09:17:29.577Z,56.83
2022-09-16T09:20:44.123Z,53.49
2022-09-16T09:23:52.459Z,55.87
2022-09-16T09:27:15.552Z,54.37
2022-09-16T09:30:26.055Z,57.03
2022-09-16T09:33:57.051Z,58.67
2022-09-16T09:37:18.568Z,56.46
2022-09-16T09:40:57.080Z,58.81
2022-09-16T09:44:08.311Z,62.18
2022-09-16T09:47:28.008Z,60.78
2022-09-16T09:50:44.727Z,61.47
2022-09-16T09:53:53.111Z,60.37
2022-09-16T09:57:00.263Z,59.93
2022-09-16T10:00:12.197Z,60.07
2022-09-16T10:03:17.581Z,59.55
2022-09-16T10:06:26.436Z,58.92
2022-09-16T10:09:28.940Z,59.95
2022-09-16T10:12:33.344Z,59.62
2022-09-16T10:15:35.521Z,59.74
2022-09-16T10:18:37.824Z,60.83
2022-09-16T10:21:46.406Z,60.62
2022-09-16T10:24:55.115Z,59.15
2022-09-16T10:28:00.490Z,60.41
2022-09-16T10:31:02.880Z,60.14
2022-09-16T10:34:37.298Z,59.72
2022-09-16T10:37:41.732Z,60.08
2022-09-16T10:40:53.961Z,58.89
2022-09-16T10:44:17.693Z,58.70
2022-09-16T10:47:25.617Z,57.58
2022-09-16T10:50:28.235Z,58.64
2022-09-16T10:53:56.055Z,56.98
2022-09-16T10:56:58.462Z,55.99
2022-09-16T11:00:13.849Z,57.18
2022-09-16T11:03:50.428Z,56.84
2022-09-16T11:06:59.099Z,58.72
2022-09-16T11:10:19.501Z,57.40
2022-09-16T11:13:48.232Z,56.71
2022-09-16T11:17:11.748Z,54.63
2022-09-16T11:20:40.760Z,55.83
2022-09-16T11:24:03.364Z,57.60
2022-09-16T11:27:37.542Z,59.10
2022-09-16T11:31:07.089Z,57.34
2022-09-16T11:34:34.501Z,58.67
2022-09-16T11:37:57.847Z,59.29
2022-09-16T11:40:59.702Z,59.51
2022-09-16T11:44:24.156Z,59.83
2022-09-16T11:47:26.104Z,59.69
2022-09-16T11:51:01.949Z,58.72
2022-09-16T11:54:41.642Z,57.20
2022-09-16T11:57:48.809Z,57.44
2022-09-16T12:00:52.620Z,59.23
2022-09-16T12:04:01.030Z,56.28
2022-09-16T12:07:25.612Z,56.91
2022-09-16T12:10:38.374Z,58.33
2022-09-16T12:13:45.075Z,58.90
2022-09-16T12:16:50.865Z,59.42
2022-09-16T12:20:01.687Z,58.64
2022-09-16T12:23:06.791Z,59.54
2022-09-16T12:26:20.267Z,59.61
2022-09-16T12:29:30.169Z,60.90
2022-09-16T12:32:39.352Z,61.77
2022-09-16T12:36:08.908Z,61.58
2022-09-16T12:39:12.818Z,61.87
2022-09-16T12:42:36.616Z,61.70
2022-09-16T12:45:44.837Z,61.69
2022-09-16T12:48:59.895Z,61.36
2022-09-16T12:52:17.495Z,60.88
2022-09-16T12:55:48.715Z,60.98
2022-09-16T12:59:21.781Z,59.06
2022-09-16T13:02:30.634Z,59.54
2022-09-16T13:05:34.807Z,59.86
2022-09-16T13:08:37.270Z,59.40
2022-09-16T13:12:24.090Z,58.06
2022-09-16T13:15:05.533Z,58.00
2022-09-16T13:18:18.787Z,58.26
2022-09-16T13:21:31.191Z,59.87
2022-09-16T13:25:15.192Z,58.01
2022-09-16T13:28:35.360Z,58.66
2022-09-16T13:31:47.598Z,57.89
2022-09-16T13:35:01.044Z,58.70
2022-09-16T13:38:15.261Z,56.61
2022-09-16T13:41:33.575Z,55.39
2022-09-16T13:44:41.458Z,56.88
2022-09-16T13:47:49.581Z,55.07
2022-09-16T13:50:54.295Z,56.98
2022-09-16T13:54:02.783Z,57.30
2022-09-16T13:57:12.888Z,55.81
2022-09-16T14:00:23.389Z,54.68
2022-09-16T14:04:07.111Z,55.60
2022-09-16T14:07:35.540Z,58.50
2022-09-16T14:10:59.320Z,58.33
2022-09-16T14:14:29.816Z,57.74
2022-09-16T14:17:42.252Z,57.54
2022-09-16T14:21:02.100Z,57.83
2022-09-16T14:24:20.348Z,58.93
2022-09-16T14:27:28.936Z,59.44
2022-09-16T14:30:31.525Z,60.18
2022-09-16T14:33:42.404Z,59.96
2022-09-16T14:36:46.203Z,59.74
2022-09-16T14:39:54.473Z,59.57
2022-09-16T14:43:05.016Z,58.78
2022-09-16T14:46:08.063Z,58.80
2022-09-16T14:49:12.091Z,58.56
2022-09-16T14:52:26.759Z,58.42
2022-09-16T14:55:40.366Z,59.12
2022-09-16T14:58:42.305Z,60.09
2022-09-16T15:01:44.289Z,59.83
2022-09-16T15:04:49.766Z,60.37
2022-09-16T15:08:12.795Z,60.67
2022-09-16T15:11:46.010Z,60.96
2022-09-16T15:14:40.571Z,60.78
2022-09-16T15:17:42.674Z,61.25
2022-09-16T15:20:51.023Z,61.63
2022-09-16T15:23:55.607Z,62.31
2022-09-16T15:26:58.078Z,61.51
2022-09-16T15:30:01.348Z,61.47
2022-09-16T15:33:03.536Z,61.80
2022-09-16T15:36:07.905Z,61.60
2022-09-16T15:39:35.491Z,60.61
2022-09-16T15:42:37.680Z,60.52
2022-09-16T15:45:40.801Z,62.47
2022-09-16T15:48:45.508Z,62.46
2022-09-16T15:51:49.214Z,63.54
2022-09-16T15:54:54.539Z,64.03
2022-09-16T15:58:06.808Z,63.17
2022-09-16T16:01:19.535Z,63.99
2022-09-16T16:04:24.790Z,64.80
2022-09-16T16:07:43.496Z,64.96
2022-09-16T16:11:12.510Z,64.96
2022-09-16T16:14:14.375Z,65.37
2022-09-16T16:17:21.370Z,66.43
2022-09-16T16:20:24.239Z,66.76
2022-09-16T16:23:26.570Z,67.10
2022-09-16T16:26:28.570Z,67.14
2022-09-16T16:29:30.971Z,67.14
2022-09-16T16:32:33.162Z,67.61
2022-09-16T16:35:35.025Z,67.62
2022-09-16T16:38:36.993Z,68.22
2022-09-16T16:41:38.834Z,69.04
2022-09-16T16:44:41.116Z,68.93
2022-09-16T16:47:44.231Z,68.79
2022-09-16T16:50:55.651Z,68.58
2022-09-16T16:53:57.926Z,68.34
2022-09-16T16:57:00.593Z,68.35
2022-09-16T17:00:03.651Z,68.08
2022-09-16T17:03:05.817Z,68.19
2022-09-16T17:06:09.218Z,69.27
2022-09-16T17:09:15.742Z,70.02
2022-09-16T17:12:18.303Z,69.79
2022-09-16T17:15:20.282Z,70.36
2022-09-16T17:18:22.214Z,70.49
2022-09-16T17:21:27.001Z,71.23
2022-09-16T17:24:29.281Z,71.40
2022-09-16T17:27:31.468Z,71.50
2022-09-16T17:30:34.344Z,72.13
2022-09-16T17:33:36.609Z,71.75
2022-09-16T17:36:41.319Z,71.42
2022-09-16T17:39:43.199Z,71.07
2022-09-16T17:42:45.327Z,71.36
2022-09-16T17:45:49.524Z,71.65
2022-09-16T17:48:51.303Z,71.51
2022-09-16T17:51:53.938Z,71.62
2022-09-16T17:54:56.228Z,71.40
2022-09-16T17:57:58.283Z,73.46
2022-09-16T18:01:24.672Z,72.95
2022-09-16T18:04:27.074Z,71.87
2022-09-16T18:07:28.991Z,72.03
2022-09-16T18:10:31.961Z,71.84
2022-09-16T18:13:36.224Z,72.56
2022-09-16T18:16:38.777Z,72.75
2022-09-16T18:19:40.864Z,72.26
2022-09-16T18:22:42.839Z,73.10
2022-09-16T18:25:44.957Z,73.54
2022-09-16T18:29:09.166Z,73.67
2022-09-16T18:32:11.682Z,75.05
2022-09-16T18:35:14.516Z,74.11
2022-09-16T18:38:19.205Z,74.74
2022-09-16T18:41:25.018Z,74.55
2022-09-16T18:44:29.658Z,74.32
2022-09-16T18:47:34.421Z,73.57
2022-09-16T18:50:36.847Z,73.46
2022-09-16T18:53:39.905Z,73.54
2022-09-16T18:56:43.199Z,73.42
2022-09-16T18:59:47.658Z,73.52
2022-09-16T19:02:52.701Z,73.64
2022-09-16T19:05:57.028Z,73.65
2022-09-16T19:09:09.487Z,74.02
2022-09-16T19:12:13.842Z,73.24
2022-09-16T19:15:16.008Z,73.78
2022-09-16T19:18:21.475Z,73.83
2022-09-16T19:21:24.549Z,74.09
2022-09-16T19:24:30.887Z,74.02
2022-09-16T19:27:36.413Z,77.53
2022-09-16T19:30:41.429Z,75.80
2022-09-16T19:33:45.286Z,75.99
2022-09-16T19:36:49.288Z,75.63
2022-09-16T19:39:51.938Z,78.15
2022-09-16T19:42:55.621Z,78.16
2022-09-16T19:46:12.057Z,77.32
2022-09-16T19:49:17.732Z,76.64
2022-09-16T19:52:19.872Z,76.59
2022-09-16T19:55:24.359Z,76.50
2022-09-16T19:58:27.913Z,76.62
2022-09-16T20:01:32.307Z,77.03
2022-09-16T20:04:34.768Z,77.48
2022-09-16T20:07:37.184Z,77.90
2022-09-16T20:10:39.652Z,77.86
2022-09-16T20:13:43.008Z,77.96
2022-09-16T20:16:45.353Z,79.99
2022-09-16T20:19:47.728Z,79.64
2022-09-16T20:22:50.014Z,77.56
2022-09-16T20:25:56.972Z,77.97
2022-09-16T20:28:59.323Z,77.95
2022-09-16T20:32:01.933Z,78.44
2022-09-16T20:35:04.385Z,77.31
2022-09-16T20:38:06.580Z,77.06
2022-09-16T20:41:12.065Z,78.82
2022-09-16T20:44:16.083Z,79.16
2022-09-16T20:47:18.767Z,78.92
2022-09-16T20:50:21.003Z,77.83
2022-09-16T20:53:23.229Z,77.70
2022-09-16T20:56:26.749Z,78.42
2022-09-16T20:59:29.711Z,77.59
2022-09-16T21:02:32.522Z,76.88
2022-09-16T21:05:34.648Z,76.73
2022-09-16T21:08:40.097Z,76.34
2022-09-16T21:11:45.361Z,75.72
2022-09-16T21:14:47.494Z,75.89
2022-09-16T21:17:49.526Z,74.32
2022-09-16T21:21:06.119Z,74.62
2022-09-16T21:24:08.736Z,74.70
2022-09-16T21:27:10.739Z,74.76
2022-09-16T21:30:13.078Z,73.86
2022-09-16T21:33:15.607Z,73.35
2022-09-16T21:36:19.570Z,72.88
2022-09-16T21:39:22.127Z,72.01
2022-09-16T21:42:24.261Z,71.77
2022-09-16T21:45:26.284Z,71.58
2022-09-16T21:48:29.143Z,71.92
2022-09-16T21:51:35.436Z,72.35
2022-09-16T21:54:37.500Z,71.11
2022-09-16T21:57:39.371Z,71.28
2022-09-16T22:00:41.250Z,70.99
2022-09-16T22:03:44.032Z,71.08
2022-09-16T22:06:46.109Z,72.95
2022-09-16T22:09:47.951Z,72.50
2022-09-16T22:12:49.788Z,72.21
2022-09-16T22:15:52.636Z,71.36
2022-09-16T22:18:55.973Z,71.75
2022-09-16T22:21:57.800Z,71.31
2022-09-16T22:24:59.702Z,71.75
2022-09-16T22:28:01.663Z,72.21
2022-09-16T22:31:15.809Z,72.11
2022-09-16T22:34:17.993Z,71.39
2022-09-16T22:37:19.741Z,71.89
2022-09-16T22:40:21.807Z,71.67
2022-09-16T22:43:23.711Z,71.80
2022-09-16T22:46:38.891Z,70.50
2022-09-16T22:49:40.724Z,71.01
2022-09-16T22:52:42.559Z,71.22
2022-09-16T22:55:44.336Z,70.56
2022-09-16T22:58:46.843Z,70.81
2022-09-16T23:01:49.317Z,70.30
2022-09-16T23:04:51.229Z,70.42
2022-09-16T23:07:55.467Z,70.07
2022-09-16T23:10:57.382Z,69.84
2022-09-16T23:14:01.244Z,69.90
2022-09-16T23:17:03.012Z,70.30
2022-09-16T23:20:05.350Z,70.88
2022-09-16T23:23:10.071Z,69.87
2022-09-16T23:26:18.171Z,69.44
2022-09-16T23:29:19.969Z,70.42
2022-09-16T23:32:21.755Z,70.92
2022-09-16T23:35:23.644Z,70.91
2022-09-16T23:38:25.578Z,71.10
2022-09-16T23:41:27.845Z,71.08
2022-09-16T23:44:29.573Z,70.99
2022-09-16T23:47:31.321Z,71.47
2022-09-16T23:50:33.267Z,72.10
2022-09-16T23:53:35.986Z,72.21
2022-09-16T23:56:37.715Z,71.59
2022-09-16T23:59:39.664Z,71.46
